»·PEaware :: AAL418 KLAX-KSFO

AAL418 :: KLAX-KSFO

FLIGHT INFORMATION

Flight Status: Arrived
Operator:
American Airlines
More flights by this operator :: More flights under this callsign
Pilot: Alex S. (20085)
Aircraft: BOEING 737-800
(B738)
More flights by this aircraft type
Origin: KLAX Los Angeles Intl
United States
Destination: KSFO San Francisco Intl
United States
More flights between these airports :: More routes between these airports
Route: +SUMMR1 STOKD SERFR SERFR3
File this flight plan on PilotEdge
Remarks:
Altitude:
(Current/Filed)
36,000ft
Speed:
(Current/Filed)
270kts
Departed: 03-Jul-19 04:01 PM
Arrived: 03-Jul-19 04:58 PM
Distance/Time
Traveled:
293nm/0:57
Distance/Time
To Go:
Arrived

Flight Plot

Page will automatically refresh every two minutes.

Flight plan parsing failed; only flown route is shown


Map Options




Map Legend


Flown Route
Filed Route
Departure Airport
Arrival Airport
Navaid (VOR, NDB)
Fix

Horizontal Profiles

Position Reports

Time Latitude Longitude Heading Altitude Ground
Speed
03-Jul-19 15:38 33.940464 -118.406169 279 122ft 0kts
03-Jul-19 15:40 33.940464 -118.406169 279 122ft 0kts
03-Jul-19 15:40 33.940464 -118.406169 279 122ft 0kts
03-Jul-19 15:41 33.940464 -118.406169 279 122ft 0kts
03-Jul-19 15:42 33.940464 -118.406169 279 122ft 0kts
03-Jul-19 15:43 33.940464 -118.406169 279 122ft 0kts
03-Jul-19 15:44 33.940464 -118.406169 279 122ft 0kts
03-Jul-19 15:45 33.940464 -118.406169 279 122ft 0kts
03-Jul-19 15:46 33.940464 -118.406169 279 122ft 0kts
03-Jul-19 15:47 33.940464 -118.406169 279 122ft 0kts
03-Jul-19 15:48 33.940464 -118.406169 279 122ft 0kts
03-Jul-19 15:49 33.940464 -118.406168 279 122ft 0kts
03-Jul-19 15:50 33.940550 -118.405619 209 122ft 2kts
03-Jul-19 15:51 33.940949 -118.405614 175 122ft 0kts
03-Jul-19 15:52 33.940949 -118.405614 175 122ft 0kts
03-Jul-19 15:53 33.939940 -118.405467 174 122ft 7kts
03-Jul-19 15:54 33.939134 -118.405353 173 122ft 9kts
03-Jul-19 15:55 33.938513 -118.402453 81 119ft 14kts
03-Jul-19 15:56 33.939160 -118.396373 80 109ft 22kts
03-Jul-19 15:57 33.939871 -118.388602 86 103ft 27kts
03-Jul-19 15:58 33.940594 -118.382233 82 99ft 19kts
03-Jul-19 15:59 33.940669 -118.380616 118 99ft 6kts
03-Jul-19 16:00 33.938562 -118.392685 260 109ft 140kts
03-Jul-19 16:01 33.933148 -118.445153 261 2713ft 180kts
03-Jul-19 16:02 33.926334 -118.522593 264 5290ft 261kts
03-Jul-19 16:03 33.919041 -118.611102 264 9193ft 275kts
03-Jul-19 16:04 33.916712 -118.710233 270 11927ft 325kts
03-Jul-19 16:05 33.916602 -118.820596 270 13019ft 325kts
03-Jul-19 16:06 33.919345 -118.930306 272 13799ft 334kts
03-Jul-19 16:07 33.933861 -119.039268 296 18204ft 342kts
03-Jul-19 16:08 33.965342 -119.101299 300 20565ft 354kts
03-Jul-19 16:09 34.024173 -119.198970 316 23959ft 378kts
03-Jul-19 16:10 34.112183 -119.274887 319 26900ft 400kts
03-Jul-19 16:11 34.204848 -119.354515 318 29526ft 419kts
03-Jul-19 16:12 34.300950 -119.437448 318 31695ft 441kts
03-Jul-19 16:13 34.398028 -119.521365 317 34430ft 427kts
03-Jul-19 16:14 34.482389 -119.618951 308 35958ft 427kts
03-Jul-19 16:15 34.565489 -119.721555 307 35966ft 425kts
03-Jul-19 16:16 34.648451 -119.824242 307 35969ft 426kts
03-Jul-19 16:17 34.731626 -119.927430 307 35977ft 426kts
03-Jul-19 16:18 34.814227 -120.030188 307 35984ft 425kts
03-Jul-19 16:19 34.896994 -120.133449 308 35996ft 425kts
03-Jul-19 16:20 34.979137 -120.236204 309 36006ft 423kts
03-Jul-19 16:21 35.061118 -120.339078 310 36007ft 424kts
03-Jul-19 16:22 35.146604 -120.439335 314 36001ft 425kts
03-Jul-19 16:23 35.233674 -120.536790 313 35995ft 425kts
03-Jul-19 16:24 35.320785 -120.634664 313 35995ft 425kts
03-Jul-19 16:25 35.407770 -120.732786 313 35991ft 425kts
03-Jul-19 16:26 35.494178 -120.829373 317 35953ft 415kts
03-Jul-19 16:27 35.587086 -120.915128 319 35936ft 418kts
03-Jul-19 16:28 35.680103 -121.001303 318 35935ft 418kts
03-Jul-19 16:29 35.769816 -121.084843 318 35935ft 417kts
03-Jul-19 16:30 35.859944 -121.169070 318 35934ft 417kts
03-Jul-19 16:31 35.952188 -121.255562 318 35947ft 419kts
03-Jul-19 16:32 36.043483 -121.341429 318 35995ft 420kts
03-Jul-19 16:33 36.140900 -121.422288 323 35224ft 423kts
03-Jul-19 16:34 36.241897 -121.500648 324 31932ft 437kts
03-Jul-19 16:35 36.344175 -121.580552 324 28583ft 425kts
03-Jul-19 16:36 36.441253 -121.656673 324 25992ft 400kts
03-Jul-19 16:37 36.532249 -121.728366 324 23734ft 376kts
03-Jul-19 16:38 36.618470 -121.796554 325 21406ft 360kts
03-Jul-19 16:39 36.701131 -121.862103 325 19194ft 346kts
03-Jul-19 16:40 36.787581 -121.907861 345 16994ft 340kts
03-Jul-19 16:41 36.878465 -121.932909 345 14940ft 329kts
03-Jul-19 16:42 36.966038 -121.958247 342 12979ft 319kts
03-Jul-19 16:43 37.049767 -121.990738 341 11041ft 313kts
03-Jul-19 16:44 37.128720 -122.021593 341 10184ft 278kts
03-Jul-19 16:45 37.199886 -122.049475 341 9182ft 262kts
03-Jul-19 16:46 37.267840 -122.076161 341 8041ft 256kts
03-Jul-19 16:47 37.338520 -122.104029 341 6519ft 260kts
03-Jul-19 16:48 37.400249 -122.127333 343 5904ft 189kts
03-Jul-19 16:49 37.450064 -122.144408 344 4093ft 184kts
03-Jul-19 16:50 37.491622 -122.158615 342 3398ft 133kts
03-Jul-19 16:51 37.527712 -122.171176 333 2889ft 132kts
03-Jul-19 16:52 37.548255 -122.207827 297 2655ft 131kts
03-Jul-19 16:53 37.565101 -122.247597 295 2010ft 127kts
03-Jul-19 16:54 37.581581 -122.286720 295 1315ft 125kts
03-Jul-19 16:55 37.597890 -122.325473 293 645ft 126kts
03-Jul-19 16:56 37.613423 -122.362229 293 28ft 107kts
03-Jul-19 16:57 37.618940 -122.378005 269 27ft 0kts
03-Jul-19 16:58 37.618788 -122.379072 240 29ft 15kts
03-Jul-19 16:59 37.617869 -122.380330 258 31ft 0kts
03-Jul-19 17:00 37.617849 -122.380610 261 31ft 0kts
03-Jul-19 17:01 37.617849 -122.380610 261 31ft 0kts

Navigation Log

Ident Type
Flight plan parsing failed, navigation log unavailable